sensor_id;sensor_type;location;lat;lon;timestamp;P1;durP1;ratioP1;P2;durP2;ratioP2
41623;SDS011;27319;50.306;18.926;2022-08-21T00:03:47;27.67;;;19.70;;
41623;SDS011;27319;50.306;18.926;2022-08-21T00:07:48;35.70;;;23.55;;
41623;SDS011;27319;50.306;18.926;2022-08-21T00:11:48;28.40;;;23.13;;
41623;SDS011;27319;50.306;18.926;2022-08-21T00:15:49;33.90;;;24.73;;
41623;SDS011;27319;50.306;18.926;2022-08-21T00:19:50;29.75;;;23.90;;
41623;SDS011;27319;50.306;18.926;2022-08-21T00:23:50;29.50;;;21.92;;
41623;SDS011;27319;50.306;18.926;2022-08-21T00:27:51;31.10;;;24.50;;
41623;SDS011;27319;50.306;18.926;2022-08-21T00:31:51;26.48;;;20.15;;
41623;SDS011;27319;50.306;18.926;2022-08-21T00:35:52;35.67;;;21.27;;
41623;SDS011;27319;50.306;18.926;2022-08-21T00:39:52;38.10;;;22.27;;
41623;SDS011;27319;50.306;18.926;2022-08-21T00:43:53;30.42;;;20.67;;
41623;SDS011;27319;50.306;18.926;2022-08-21T00:47:54;27.77;;;21.73;;
41623;SDS011;27319;50.306;18.926;2022-08-21T00:51:55;26.58;;;20.02;;
41623;SDS011;27319;50.306;18.926;2022-08-21T00:55:57;23.77;;;18.75;;
41623;SDS011;27319;50.306;18.926;2022-08-21T00:59:58;28.58;;;19.13;;
41623;SDS011;27319;50.306;18.926;2022-08-21T01:03:58;35.13;;;21.50;;
41623;SDS011;27319;50.306;18.926;2022-08-21T01:07:59;26.20;;;18.95;;
41623;SDS011;27319;50.306;18.926;2022-08-21T01:11:59;25.40;;;19.55;;
41623;SDS011;27319;50.306;18.926;2022-08-21T01:16:00;26.40;;;18.85;;
41623;SDS011;27319;50.306;18.926;2022-08-21T01:20:03;25.58;;;18.58;;
41623;SDS011;27319;50.306;18.926;2022-08-21T01:24:02;23.38;;;17.73;;
41623;SDS011;27319;50.306;18.926;2022-08-21T01:28:05;26.13;;;18.15;;
41623;SDS011;27319;50.306;18.926;2022-08-21T01:32:04;18.80;;;15.50;;
41623;SDS011;27319;50.306;18.926;2022-08-21T01:36:03;27.40;;;17.23;;
41623;SDS011;27319;50.306;18.926;2022-08-21T01:40:04;22.92;;;18.52;;
41623;SDS011;27319;50.306;18.926;2022-08-21T01:44:04;27.17;;;19.50;;
41623;SDS011;27319;50.306;18.926;2022-08-21T01:48:05;29.48;;;23.02;;
41623;SDS011;27319;50.306;18.926;2022-08-21T01:52:06;24.55;;;20.95;;
41623;SDS011;27319;50.306;18.926;2022-08-21T01:56:07;25.40;;;19.40;;
41623;SDS011;27319;50.306;18.926;2022-08-21T02:00:08;30.08;;;17.63;;
41623;SDS011;27319;50.306;18.926;2022-08-21T02:04:08;20.50;;;15.82;;
41623;SDS011;27319;50.306;18.926;2022-08-21T02:08:07;17.85;;;15.05;;
41623;SDS011;27319;50.306;18.926;2022-08-21T02:12:09;23.70;;;16.02;;
41623;SDS011;27319;50.306;18.926;2022-08-21T02:16:09;20.48;;;16.23;;
41623;SDS011;27319;50.306;18.926;2022-08-21T02:20:10;17.45;;;14.90;;
41623;SDS011;27319;50.306;18.926;2022-08-21T02:24:12;20.30;;;13.50;;
41623;SDS011;27319;50.306;18.926;2022-08-21T02:28:13;21.95;;;14.65;;
41623;SDS011;27319;50.306;18.926;2022-08-21T02:32:13;27.20;;;15.85;;
41623;SDS011;27319;50.306;18.926;2022-08-21T02:36:14;25.33;;;16.70;;
41623;SDS011;27319;50.306;18.926;2022-08-21T02:40:16;22.60;;;14.90;;
41623;SDS011;27319;50.306;18.926;2022-08-21T02:44:15;24.08;;;16.20;;
41623;SDS011;27319;50.306;18.926;2022-08-21T02:48:17;25.15;;;16.77;;
41623;SDS011;27319;50.306;18.926;2022-08-21T02:52:16;23.92;;;15.82;;
41623;SDS011;27319;50.306;18.926;2022-08-21T02:56:17;25.40;;;17.73;;
41623;SDS011;27319;50.306;18.926;2022-08-21T03:00:17;27.95;;;16.77;;
41623;SDS011;27319;50.306;18.926;2022-08-21T03:04:17;23.13;;;16.98;;
41623;SDS011;27319;50.306;18.926;2022-08-21T03:08:19;22.27;;;15.45;;
41623;SDS011;27319;50.306;18.926;2022-08-21T03:12:18;25.88;;;16.90;;
41623;SDS011;27319;50.306;18.926;2022-08-21T03:16:19;26.23;;;17.90;;
41623;SDS011;27319;50.306;18.926;2022-08-21T03:20:21;27.25;;;18.10;;
41623;SDS011;27319;50.306;18.926;2022-08-21T03:24:20;25.85;;;18.38;;
41623;SDS011;27319;50.306;18.926;2022-08-21T03:28:21;29.52;;;19.30;;
41623;SDS011;27319;50.306;18.926;2022-08-21T03:32:21;28.30;;;19.52;;
41623;SDS011;27319;50.306;18.926;2022-08-21T03:36:22;44.72;;;18.75;;
41623;SDS011;27319;50.306;18.926;2022-08-21T03:40:23;26.20;;;17.92;;
41623;SDS011;27319;50.306;18.926;2022-08-21T03:44:26;26.08;;;18.38;;
41623;SDS011;27319;50.306;18.926;2022-08-21T03:48:26;20.70;;;17.17;;
41623;SDS011;27319;50.306;18.926;2022-08-21T03:52:27;31.63;;;20.88;;
41623;SDS011;27319;50.306;18.926;2022-08-21T03:56:27;33.05;;;19.48;;
41623;SDS011;27319;50.306;18.926;2022-08-21T04:00:28;30.13;;;21.42;;
41623;SDS011;27319;50.306;18.926;2022-08-21T04:04:29;26.73;;;18.13;;
41623;SDS011;27319;50.306;18.926;2022-08-21T04:08:29;28.45;;;20.45;;
41623;SDS011;27319;50.306;18.926;2022-08-21T04:12:30;29.55;;;19.35;;
41623;SDS011;27319;50.306;18.926;2022-08-21T04:16:30;27.20;;;19.55;;
41623;SDS011;27319;50.306;18.926;2022-08-21T04:20:31;27.38;;;20.85;;
41623;SDS011;27319;50.306;18.926;2022-08-21T04:24:31;27.75;;;20.55;;
41623;SDS011;27319;50.306;18.926;2022-08-21T04:28:32;36.78;;;21.58;;
41623;SDS011;27319;50.306;18.926;2022-08-21T04:32:34;38.55;;;22.80;;
41623;SDS011;27319;50.306;18.926;2022-08-21T04:36:34;37.95;;;22.77;;
41623;SDS011;27319;50.306;18.926;2022-08-21T04:40:35;33.53;;;20.85;;
41623;SDS011;27319;50.306;18.926;2022-08-21T04:44:35;31.52;;;21.20;;
41623;SDS011;27319;50.306;18.926;2022-08-21T04:48:36;28.75;;;20.88;;
41623;SDS011;27319;50.306;18.926;2022-08-21T04:52:37;31.65;;;21.42;;
41623;SDS011;27319;50.306;18.926;2022-08-21T04:56:59;31.15;;;22.02;;
41623;SDS011;27319;50.306;18.926;2022-08-21T05:00:38;33.13;;;21.30;;
41623;SDS011;27319;50.306;18.926;2022-08-21T05:04:40;40.40;;;23.73;;
41623;SDS011;27319;50.306;18.926;2022-08-21T05:08:39;33.08;;;23.00;;
41623;SDS011;27319;50.306;18.926;2022-08-21T05:12:40;31.70;;;22.35;;
41623;SDS011;27319;50.306;18.926;2022-08-21T05:16:40;32.95;;;23.65;;
41623;SDS011;27319;50.306;18.926;2022-08-21T05:20:41;30.77;;;20.45;;
41623;SDS011;27319;50.306;18.926;2022-08-21T05:24:41;28.90;;;21.42;;
41623;SDS011;27319;50.306;18.926;2022-08-21T05:28:42;32.38;;;21.77;;
41623;SDS011;27319;50.306;18.926;2022-08-21T05:32:42;26.52;;;20.35;;
41623;SDS011;27319;50.306;18.926;2022-08-21T05:36:43;32.08;;;21.75;;
41623;SDS011;27319;50.306;18.926;2022-08-21T05:40:44;38.22;;;23.50;;
41623;SDS011;27319;50.306;18.926;2022-08-21T05:44:44;36.72;;;22.08;;
41623;SDS011;27319;50.306;18.926;2022-08-21T05:48:45;41.47;;;25.33;;
41623;SDS011;27319;50.306;18.926;2022-08-21T05:52:46;42.85;;;26.38;;
41623;SDS011;27319;50.306;18.926;2022-08-21T05:56:46;42.85;;;24.38;;
41623;SDS011;27319;50.306;18.926;2022-08-21T06:00:47;37.90;;;24.60;;
41623;SDS011;27319;50.306;18.926;2022-08-21T06:04:47;33.88;;;23.08;;
41623;SDS011;27319;50.306;18.926;2022-08-21T06:08:47;43.17;;;25.80;;
41623;SDS011;27319;50.306;18.926;2022-08-21T06:12:52;40.10;;;27.48;;
41623;SDS011;27319;50.306;18.926;2022-08-21T06:16:49;39.08;;;25.15;;
41623;SDS011;27319;50.306;18.926;2022-08-21T06:20:49;40.80;;;26.60;;
41623;SDS011;27319;50.306;18.926;2022-08-21T06:24:50;27.55;;;14.82;;
41623;SDS011;27319;50.306;18.926;2022-08-21T06:28:50;21.33;;;14.07;;
41623;SDS011;27319;50.306;18.926;2022-08-21T06:32:51;12.52;;;10.05;;
41623;SDS011;27319;50.306;18.926;2022-08-21T06:36:52;12.18;;;7.55;;
41623;SDS011;27319;50.306;18.926;2022-08-21T06:40:52;10.73;;;6.43;;
41623;SDS011;27319;50.306;18.926;2022-08-21T06:44:53;5.97;;;4.30;;
41623;SDS011;27319;50.306;18.926;2022-08-21T06:48:53;5.90;;;3.55;;
41623;SDS011;27319;50.306;18.926;2022-08-21T06:52:58;3.92;;;2.15;;
41623;SDS011;27319;50.306;18.926;2022-08-21T06:56:57;2.92;;;2.00;;
41623;SDS011;27319;50.306;18.926;2022-08-21T07:00:58;4.05;;;1.80;;
41623;SDS011;27319;50.306;18.926;2022-08-21T07:04:59;3.92;;;1.38;;
41623;SDS011;27319;50.306;18.926;2022-08-21T07:08:59;5.45;;;1.80;;
41623;SDS011;27319;50.306;18.926;2022-08-21T07:13:00;1.88;;;1.10;;
41623;SDS011;27319;50.306;18.926;2022-08-21T07:17:00;1.52;;;1.25;;
41623;SDS011;27319;50.306;18.926;2022-08-21T07:21:01;3.20;;;1.67;;
41623;SDS011;27319;50.306;18.926;2022-08-21T07:25:02;5.72;;;3.67;;
41623;SDS011;27319;50.306;18.926;2022-08-21T07:29:02;5.28;;;3.55;;
41623;SDS011;27319;50.306;18.926;2022-08-21T07:33:03;7.72;;;4.38;;
41623;SDS011;27319;50.306;18.926;2022-08-21T07:37:03;4.13;;;2.20;;
41623;SDS011;27319;50.306;18.926;2022-08-21T07:41:07;3.28;;;1.70;;
41623;SDS011;27319;50.306;18.926;2022-08-21T07:45:04;2.92;;;1.40;;
41623;SDS011;27319;50.306;18.926;2022-08-21T07:49:05;1.98;;;1.27;;
41623;SDS011;27319;50.306;18.926;2022-08-21T07:53:05;5.85;;;1.02;;
41623;SDS011;27319;50.306;18.926;2022-08-21T07:57:06;3.10;;;1.27;;
41623;SDS011;27319;50.306;18.926;2022-08-21T08:01:06;3.35;;;1.50;;
41623;SDS011;27319;50.306;18.926;2022-08-21T08:05:08;1.33;;;0.93;;
41623;SDS011;27319;50.306;18.926;2022-08-21T08:09:08;3.45;;;1.15;;
41623;SDS011;27319;50.306;18.926;2022-08-21T08:13:08;4.30;;;0.82;;
41623;SDS011;27319;50.306;18.926;2022-08-21T08:17:09;2.05;;;0.95;;
41623;SDS011;27319;50.306;18.926;2022-08-21T08:21:10;1.85;;;1.10;;
41623;SDS011;27319;50.306;18.926;2022-08-21T08:25:11;1.17;;;0.80;;
41623;SDS011;27319;50.306;18.926;2022-08-21T08:29:10;4.55;;;1.10;;
41623;SDS011;27319;50.306;18.926;2022-08-21T08:33:11;3.08;;;1.20;;
41623;SDS011;27319;50.306;18.926;2022-08-21T08:37:12;6.38;;;3.72;;
41623;SDS011;27319;50.306;18.926;2022-08-21T08:41:13;5.90;;;3.22;;
41623;SDS011;27319;50.306;18.926;2022-08-21T08:45:15;4.03;;;2.00;;
41623;SDS011;27319;50.306;18.926;2022-08-21T08:49:15;3.85;;;2.22;;
41623;SDS011;27319;50.306;18.926;2022-08-21T08:53:25;1.90;;;1.40;;
41623;SDS011;27319;50.306;18.926;2022-08-21T08:57:26;3.47;;;1.25;;
41623;SDS011;27319;50.306;18.926;2022-08-21T09:01:26;2.33;;;1.70;;
41623;SDS011;27319;50.306;18.926;2022-08-21T09:06:37;3.15;;;2.35;;
41623;SDS011;27319;50.306;18.926;2022-08-21T09:13:42;10.98;;;2.28;;
41623;SDS011;27319;50.306;18.926;2022-08-21T09:24:57;3.35;;;1.42;;
41623;SDS011;27319;50.306;18.926;2022-08-21T09:29:03;4.72;;;2.10;;
41623;SDS011;27319;50.306;18.926;2022-08-21T09:33:04;2.05;;;1.52;;
41623;SDS011;27319;50.306;18.926;2022-08-21T09:37:04;7.90;;;3.08;;
41623;SDS011;27319;50.306;18.926;2022-08-21T09:41:06;2.88;;;1.52;;
41623;SDS011;27319;50.306;18.926;2022-08-21T09:45:11;3.38;;;1.60;;
41623;SDS011;27319;50.306;18.926;2022-08-21T09:49:09;3.55;;;2.13;;
41623;SDS011;27319;50.306;18.926;2022-08-21T09:53:20;2.60;;;1.30;;
41623;SDS011;27319;50.306;18.926;2022-08-21T09:57:23;2.03;;;1.13;;
41623;SDS011;27319;50.306;18.926;2022-08-21T10:01:21;1.55;;;1.13;;
41623;SDS011;27319;50.306;18.926;2022-08-21T10:05:24;1.80;;;1.38;;
41623;SDS011;27319;50.306;18.926;2022-08-21T10:09:30;1.85;;;1.27;;
41623;SDS011;27319;50.306;18.926;2022-08-21T10:13:55;2.22;;;1.15;;
41623;SDS011;27319;50.306;18.926;2022-08-21T10:48:54;1.40;;;1.00;;
41623;SDS011;27319;50.306;18.926;2022-08-21T10:57:16;6.95;;;1.70;;
41623;SDS011;27319;50.306;18.926;2022-08-21T11:01:15;4.00;;;1.40;;
41623;SDS011;27319;50.306;18.926;2022-08-21T11:09:19;3.75;;;1.48;;
41623;SDS011;27319;50.306;18.926;2022-08-21T11:13:21;4.47;;;1.90;;
41623;SDS011;27319;50.306;18.926;2022-08-21T11:17:09;5.38;;;1.48;;
41623;SDS011;27319;50.306;18.926;2022-08-21T11:24:57;2.38;;;1.70;;
41623;SDS011;27319;50.306;18.926;2022-08-21T11:28:47;3.65;;;1.58;;
41623;SDS011;27319;50.306;18.926;2022-08-21T11:32:57;1.73;;;1.20;;
41623;SDS011;27319;50.306;18.926;2022-08-21T11:36:59;1.83;;;1.48;;
41623;SDS011;27319;50.306;18.926;2022-08-21T11:56:06;1.50;;;1.30;;
41623;SDS011;27319;50.306;18.926;2022-08-21T12:00:11;1.70;;;1.60;;
41623;SDS011;27319;50.306;18.926;2022-08-21T12:11:30;3.50;;;1.35;;
41623;SDS011;27319;50.306;18.926;2022-08-21T12:15:30;1.50;;;1.10;;
41623;SDS011;27319;50.306;18.926;2022-08-21T12:19:31;1.88;;;1.20;;
41623;SDS011;27319;50.306;18.926;2022-08-21T12:23:45;1.75;;;1.23;;
41623;SDS011;27319;50.306;18.926;2022-08-21T12:27:46;1.70;;;1.10;;
41623;SDS011;27319;50.306;18.926;2022-08-21T12:35:35;5.05;;;4.55;;
41623;SDS011;27319;50.306;18.926;2022-08-21T12:39:33;5.50;;;4.63;;
41623;SDS011;27319;50.306;18.926;2022-08-21T12:43:34;3.95;;;2.63;;
41623;SDS011;27319;50.306;18.926;2022-08-21T12:47:43;2.08;;;1.80;;
41623;SDS011;27319;50.306;18.926;2022-08-21T12:51:47;7.25;;;3.50;;
41623;SDS011;27319;50.306;18.926;2022-08-21T12:55:27;4.47;;;3.22;;
41623;SDS011;27319;50.306;18.926;2022-08-21T12:59:27;6.90;;;4.90;;
41623;SDS011;27319;50.306;18.926;2022-08-21T13:03:27;5.45;;;4.78;;
41623;SDS011;27319;50.306;18.926;2022-08-21T13:07:29;7.45;;;6.72;;
41623;SDS011;27319;50.306;18.926;2022-08-21T13:11:28;14.25;;;10.07;;
41623;SDS011;27319;50.306;18.926;2022-08-21T13:15:30;15.43;;;9.73;;
41623;SDS011;27319;50.306;18.926;2022-08-21T13:19:29;11.15;;;7.60;;
41623;SDS011;27319;50.306;18.926;2022-08-21T13:23:33;11.40;;;6.40;;
41623;SDS011;27319;50.306;18.926;2022-08-21T13:27:33;10.88;;;8.27;;
41623;SDS011;27319;50.306;18.926;2022-08-21T13:31:37;9.13;;;7.10;;
41623;SDS011;27319;50.306;18.926;2022-08-21T13:35:51;8.02;;;6.60;;
41623;SDS011;27319;50.306;18.926;2022-08-21T13:39:51;9.93;;;5.28;;
41623;SDS011;27319;50.306;18.926;2022-08-21T13:43:56;4.65;;;3.85;;
41623;SDS011;27319;50.306;18.926;2022-08-21T13:47:33;4.22;;;3.33;;
41623;SDS011;27319;50.306;18.926;2022-08-21T13:51:34;5.57;;;3.60;;
41623;SDS011;27319;50.306;18.926;2022-08-21T13:55:36;4.25;;;3.60;;
41623;SDS011;27319;50.306;18.926;2022-08-21T13:59:35;5.60;;;3.53;;
41623;SDS011;27319;50.306;18.926;2022-08-21T14:03:55;3.85;;;3.40;;
41623;SDS011;27319;50.306;18.926;2022-08-21T14:07:38;5.95;;;4.22;;
41623;SDS011;27319;50.306;18.926;2022-08-21T14:11:56;6.85;;;4.45;;
41623;SDS011;27319;50.306;18.926;2022-08-21T14:15:57;13.60;;;4.82;;
41623;SDS011;27319;50.306;18.926;2022-08-21T14:19:46;5.90;;;4.40;;
41623;SDS011;27319;50.306;18.926;2022-08-21T14:23:37;5.93;;;5.25;;
41623;SDS011;27319;50.306;18.926;2022-08-21T14:31:30;5.40;;;4.25;;
41623;SDS011;27319;50.306;18.926;2022-08-21T14:35:31;5.93;;;4.57;;
41623;SDS011;27319;50.306;18.926;2022-08-21T14:39:32;5.75;;;4.63;;
41623;SDS011;27319;50.306;18.926;2022-08-21T14:43:32;6.55;;;4.47;;
41623;SDS011;27319;50.306;18.926;2022-08-21T14:47:33;4.80;;;3.80;;
41623;SDS011;27319;50.306;18.926;2022-08-21T14:51:34;5.05;;;3.97;;
41623;SDS011;27319;50.306;18.926;2022-08-21T14:55:34;5.78;;;4.32;;
41623;SDS011;27319;50.306;18.926;2022-08-21T14:59:38;4.95;;;3.92;;
41623;SDS011;27319;50.306;18.926;2022-08-21T15:03:39;5.93;;;4.88;;
41623;SDS011;27319;50.306;18.926;2022-08-21T15:07:39;7.25;;;5.00;;
41623;SDS011;27319;50.306;18.926;2022-08-21T15:11:40;7.70;;;4.90;;
41623;SDS011;27319;50.306;18.926;2022-08-21T15:15:42;6.05;;;4.43;;
41623;SDS011;27319;50.306;18.926;2022-08-21T15:19:41;6.07;;;3.88;;
41623;SDS011;27319;50.306;18.926;2022-08-21T15:23:41;5.15;;;4.18;;
41623;SDS011;27319;50.306;18.926;2022-08-21T15:27:42;4.95;;;3.50;;
41623;SDS011;27319;50.306;18.926;2022-08-21T15:35:57;3.95;;;3.20;;
41623;SDS011;27319;50.306;18.926;2022-08-21T15:39:58;6.68;;;4.82;;
41623;SDS011;27319;50.306;18.926;2022-08-21T15:43:58;5.55;;;3.90;;
41623;SDS011;27319;50.306;18.926;2022-08-21T15:47:59;4.90;;;3.88;;
41623;SDS011;27319;50.306;18.926;2022-08-21T15:51:59;6.15;;;4.13;;
41623;SDS011;27319;50.306;18.926;2022-08-21T15:56:00;7.63;;;4.47;;
41623;SDS011;27319;50.306;18.926;2022-08-21T16:00:04;6.22;;;4.13;;
41623;SDS011;27319;50.306;18.926;2022-08-21T16:04:02;8.15;;;4.00;;
41623;SDS011;27319;50.306;18.926;2022-08-21T16:08:02;5.32;;;3.65;;
41623;SDS011;27319;50.306;18.926;2022-08-21T16:12:03;4.88;;;3.95;;
41623;SDS011;27319;50.306;18.926;2022-08-21T16:16:03;4.97;;;3.67;;
41623;SDS011;27319;50.306;18.926;2022-08-21T16:20:05;8.23;;;5.30;;
41623;SDS011;27319;50.306;18.926;2022-08-21T16:24:04;11.63;;;8.27;;
41623;SDS011;27319;50.306;18.926;2022-08-21T16:28:05;15.60;;;11.27;;
41623;SDS011;27319;50.306;18.926;2022-08-21T16:32:05;17.33;;;10.23;;
41623;SDS011;27319;50.306;18.926;2022-08-21T16:36:06;10.18;;;6.30;;
41623;SDS011;27319;50.306;18.926;2022-08-21T16:40:07;8.27;;;5.88;;
41623;SDS011;27319;50.306;18.926;2022-08-21T16:44:07;11.38;;;5.47;;
41623;SDS011;27319;50.306;18.926;2022-08-21T16:48:08;8.18;;;5.55;;
41623;SDS011;27319;50.306;18.926;2022-08-21T16:52:08;11.38;;;7.40;;
41623;SDS011;27319;50.306;18.926;2022-08-21T16:56:10;17.05;;;9.77;;
41623;SDS011;27319;50.306;18.926;2022-08-21T17:00:10;7.63;;;4.40;;
41623;SDS011;27319;50.306;18.926;2022-08-21T17:04:10;4.68;;;3.58;;
41623;SDS011;27319;50.306;18.926;2022-08-21T17:08:11;5.20;;;2.85;;
41623;SDS011;27319;50.306;18.926;2022-08-21T17:12:11;3.95;;;2.45;;
41623;SDS011;27319;50.306;18.926;2022-08-21T17:16:12;5.35;;;2.40;;
41623;SDS011;27319;50.306;18.926;2022-08-21T17:20:16;4.60;;;2.78;;
41623;SDS011;27319;50.306;18.926;2022-08-21T17:24:16;3.40;;;2.25;;
41623;SDS011;27319;50.306;18.926;2022-08-21T17:28:22;5.10;;;3.50;;
41623;SDS011;27319;50.306;18.926;2022-08-21T17:32:21;6.18;;;3.58;;
41623;SDS011;27319;50.306;18.926;2022-08-21T17:36:22;6.75;;;4.18;;
41623;SDS011;27319;50.306;18.926;2022-08-21T17:40:21;5.60;;;3.80;;
41623;SDS011;27319;50.306;18.926;2022-08-21T17:44:22;8.07;;;4.40;;
41623;SDS011;27319;50.306;18.926;2022-08-21T17:48:24;5.00;;;3.55;;
41623;SDS011;27319;50.306;18.926;2022-08-21T17:52:23;6.90;;;4.40;;
41623;SDS011;27319;50.306;18.926;2022-08-21T17:56:26;9.80;;;3.80;;
41623;SDS011;27319;50.306;18.926;2022-08-21T18:00:24;5.18;;;2.70;;
41623;SDS011;27319;50.306;18.926;2022-08-21T18:04:26;3.92;;;2.50;;
41623;SDS011;27319;50.306;18.926;2022-08-21T18:08:26;3.33;;;2.67;;
41623;SDS011;27319;50.306;18.926;2022-08-21T18:12:26;4.75;;;2.90;;
41623;SDS011;27319;50.306;18.926;2022-08-21T18:16:27;4.35;;;2.95;;
41623;SDS011;27319;50.306;18.926;2022-08-21T18:20:27;3.60;;;2.40;;
41623;SDS011;27319;50.306;18.926;2022-08-21T18:23:44;3.40;;;1.98;;
41623;SDS011;27319;50.306;18.926;2022-08-21T18:26:45;4.30;;;2.03;;
41623;SDS011;27319;50.306;18.926;2022-08-21T18:29:47;3.25;;;2.38;;
41623;SDS011;27319;50.306;18.926;2022-08-21T18:32:51;2.78;;;1.83;;
41623;SDS011;27319;50.306;18.926;2022-08-21T18:35:53;2.22;;;1.30;;
41623;SDS011;27319;50.306;18.926;2022-08-21T18:38:54;4.07;;;2.88;;
41623;SDS011;27319;50.306;18.926;2022-08-21T18:41:55;9.02;;;6.63;;
41623;SDS011;27319;50.306;18.926;2022-08-21T18:44:59;14.77;;;8.48;;
41623;SDS011;27319;50.306;18.926;2022-08-21T18:48:01;16.80;;;10.65;;
41623;SDS011;27319;50.306;18.926;2022-08-21T18:51:09;17.70;;;12.38;;
41623;SDS011;27319;50.306;18.926;2022-08-21T18:54:11;18.40;;;12.05;;
41623;SDS011;27319;50.306;18.926;2022-08-21T18:57:13;19.90;;;13.18;;
41623;SDS011;27319;50.306;18.926;2022-08-21T19:00:19;17.92;;;13.13;;
41623;SDS011;27319;50.306;18.926;2022-08-21T19:03:23;18.83;;;14.95;;
41623;SDS011;27319;50.306;18.926;2022-08-21T19:07:23;20.13;;;14.30;;
41623;SDS011;27319;50.306;18.926;2022-08-21T19:11:24;11.65;;;9.95;;
41623;SDS011;27319;50.306;18.926;2022-08-21T19:15:24;5.90;;;5.15;;
41623;SDS011;27319;50.306;18.926;2022-08-21T19:18:26;3.80;;;3.00;;
41623;SDS011;27319;50.306;18.926;2022-08-21T19:21:27;2.70;;;2.08;;
41623;SDS011;27319;50.306;18.926;2022-08-21T19:24:28;2.72;;;1.98;;
41623;SDS011;27319;50.306;18.926;2022-08-21T19:27:29;3.75;;;1.80;;
41623;SDS011;27319;50.306;18.926;2022-08-21T19:30:30;3.63;;;1.52;;
41623;SDS011;27319;50.306;18.926;2022-08-21T19:33:32;2.58;;;1.80;;
41623;SDS011;27319;50.306;18.926;2022-08-21T19:36:37;2.20;;;1.65;;
41623;SDS011;27319;50.306;18.926;2022-08-21T19:39:38;4.35;;;2.50;;
41623;SDS011;27319;50.306;18.926;2022-08-21T19:42:40;3.95;;;2.33;;
41623;SDS011;27319;50.306;18.926;2022-08-21T19:46:40;5.97;;;2.90;;
41623;SDS011;27319;50.306;18.926;2022-08-21T19:50:40;7.68;;;4.00;;
41623;SDS011;27319;50.306;18.926;2022-08-21T19:54:41;14.75;;;4.60;;
41623;SDS011;27319;50.306;18.926;2022-08-21T19:58:42;5.97;;;4.32;;
41623;SDS011;27319;50.306;18.926;2022-08-21T20:02:42;4.45;;;3.78;;
41623;SDS011;27319;50.306;18.926;2022-08-21T20:06:43;5.70;;;3.75;;
41623;SDS011;27319;50.306;18.926;2022-08-21T20:10:43;5.53;;;3.83;;
41623;SDS011;27319;50.306;18.926;2022-08-21T20:14:45;4.88;;;3.42;;
41623;SDS011;27319;50.306;18.926;2022-08-21T20:18:45;5.22;;;3.88;;
41623;SDS011;27319;50.306;18.926;2022-08-21T20:22:45;5.90;;;2.78;;
41623;SDS011;27319;50.306;18.926;2022-08-21T20:26:46;2.58;;;2.17;;
41623;SDS011;27319;50.306;18.926;2022-08-21T20:30:46;2.50;;;1.75;;
41623;SDS011;27319;50.306;18.926;2022-08-21T20:34:47;3.55;;;2.40;;
41623;SDS011;27319;50.306;18.926;2022-08-21T20:38:48;3.10;;;2.15;;
41623;SDS011;27319;50.306;18.926;2022-08-21T20:42:49;6.95;;;1.85;;
41623;SDS011;27319;50.306;18.926;2022-08-21T20:46:49;4.97;;;1.95;;
41623;SDS011;27319;50.306;18.926;2022-08-21T20:50:50;2.97;;;1.83;;
41623;SDS011;27319;50.306;18.926;2022-08-21T20:54:54;6.55;;;2.47;;
41623;SDS011;27319;50.306;18.926;2022-08-21T20:58:59;4.25;;;2.50;;
41623;SDS011;27319;50.306;18.926;2022-08-21T21:03:20;8.90;;;6.25;;
41623;SDS011;27319;50.306;18.926;2022-08-21T21:07:35;6.45;;;4.10;;
41623;SDS011;27319;50.306;18.926;2022-08-21T21:11:48;10.73;;;4.25;;
41623;SDS011;27319;50.306;18.926;2022-08-21T21:15:47;7.30;;;5.10;;
41623;SDS011;27319;50.306;18.926;2022-08-21T21:19:51;6.53;;;4.68;;
41623;SDS011;27319;50.306;18.926;2022-08-21T21:23:53;12.35;;;6.40;;
41623;SDS011;27319;50.306;18.926;2022-08-21T21:27:39;8.80;;;6.18;;
41623;SDS011;27319;50.306;18.926;2022-08-21T21:31:40;11.38;;;6.93;;
41623;SDS011;27319;50.306;18.926;2022-08-21T21:39:28;12.55;;;7.70;;
41623;SDS011;27319;50.306;18.926;2022-08-21T21:47:32;11.95;;;6.20;;
41623;SDS011;27319;50.306;18.926;2022-08-21T21:51:55;6.45;;;4.60;;
41623;SDS011;27319;50.306;18.926;2022-08-21T21:55:02;5.50;;;3.92;;
41623;SDS011;27319;50.306;18.926;2022-08-21T21:58:54;4.22;;;2.08;;
41623;SDS011;27319;50.306;18.926;2022-08-21T22:03:09;1.83;;;1.45;;
41623;SDS011;27319;50.306;18.926;2022-08-21T22:14:40;1.63;;;0.85;;
41623;SDS011;27319;50.306;18.926;2022-08-21T22:18:46;1.35;;;1.10;;
41623;SDS011;27319;50.306;18.926;2022-08-21T22:22:47;3.78;;;1.10;;
41623;SDS011;27319;50.306;18.926;2022-08-21T22:26:48;3.05;;;0.90;;
41623;SDS011;27319;50.306;18.926;2022-08-21T22:30:52;3.03;;;1.08;;
41623;SDS011;27319;50.306;18.926;2022-08-21T22:34:34;0.82;;;0.82;;
41623;SDS011;27319;50.306;18.926;2022-08-21T22:38:40;1.00;;;0.90;;
41623;SDS011;27319;50.306;18.926;2022-08-21T22:42:41;1.13;;;1.02;;
41623;SDS011;27319;50.306;18.926;2022-08-21T22:46:47;1.50;;;1.30;;
41623;SDS011;27319;50.306;18.926;2022-08-21T22:50:44;3.13;;;1.50;;
41623;SDS011;27319;50.306;18.926;2022-08-21T22:54:45;2.72;;;1.95;;
41623;SDS011;27319;50.306;18.926;2022-08-21T22:59:02;3.80;;;2.47;;
41623;SDS011;27319;50.306;18.926;2022-08-21T23:14:08;7.45;;;5.50;;
41623;SDS011;27319;50.306;18.926;2022-08-21T23:40:55;6.32;;;4.75;;
41623;SDS011;27319;50.306;18.926;2022-08-21T23:59:29;6.28;;;5.20;;
